Time;durP1;ratioP1;P1;durP2;ratioP2;P2;SDS_P1;SDS_P2;PMS_P1;PMS_P2;Temp;Humidity;BMP_temperature;BMP_pressure;BME280_temperature;BME280_humidity;BME280_pressure;Samples;Min_cycle;Max_cycle;Signal;HPM_P1;HPM_P2
2022/01/28 00:01:02;;;;;;;;;;;;;;;;;;5094679;28;19969;-65
2022/01/28 00:03:28;;;;;;;;;;;12.60;97.90;;;;;;5114495;28;19977;-65
2022/01/28 00:05:53;;;;;;;;;;;12.60;97.90;;;;;;5114226;27;19923;-64
2022/01/28 00:08:19;;;;;;;;;;;12.80;97.90;;;;;;5115601;28;19932;-64
2022/01/28 00:10:45;;;;;;;;;;;12.80;97.80;;;;;;5114274;28;19923;-65
2022/01/28 00:13:20;;;;;;;;;;;13.10;97.90;;;;;;5102480;28;19970;-63
2022/01/28 00:18:51;;;;;;;;;;;12.80;97.90;;;;;;5094485;28;19924;-64
2022/01/28 00:38:04;;;;;;;;;;;;;;;;;;5114084;28;20369;-66
2022/01/28 00:40:31;;;;;;;;;;;12.90;97.80;;;;;;5094316;28;19924;-63
2022/01/28 00:42:56;;;;;;;;;;;12.80;97.70;;;;;;5096643;28;19974;-64
2022/01/28 00:45:22;;;;;;;;;;;12.80;97.70;;;;;;5098012;28;19967;-64
2022/01/28 00:47:48;;;;;;;;;;;12.80;97.70;;;;;;5114918;28;19931;-65
2022/01/28 00:50:14;;;;;;;;;;;12.60;97.60;;;;;;5114271;28;19931;-64
2022/01/28 00:52:39;;;;;;;;;;;12.80;97.70;;;;;;5110339;28;19977;-64
2022/01/28 00:55:05;;;;;;;;;;;12.80;97.70;;;;;;5094708;28;20014;-64
2022/01/28 00:57:31;;;;;;;;;;;12.90;97.70;;;;;;5103962;28;19931;-65
2022/01/28 00:59:56;;;;;;;;;;;12.90;97.60;;;;;;5113196;28;19930;-64
2022/01/28 01:02:22;;;;;;;;;;;12.70;97.60;;;;;;5113498;28;19934;-65
2022/01/28 01:04:48;;;;;;;;;;;12.80;97.60;;;;;;5114216;28;19923;-64
2022/01/28 01:07:13;;;;;;;;;;;13.00;97.60;;;;;;5103698;28;19925;-64
2022/01/28 01:09:39;;;;;;;;;;;12.80;97.60;;;;;;5101673;28;19975;-65
2022/01/28 01:12:05;;;;;;;;;;;12.80;97.60;;;;;;5114541;28;19978;-64
2022/01/28 01:14:30;;;;;;;;;;;12.70;97.50;;;;;;5113429;28;19920;-65
2022/01/28 01:19:36;;;;;;;;;;;12.80;97.50;;;;;;5112039;28;20026;-64
2022/01/28 01:22:01;;;;;;;;;;;12.80;97.40;;;;;;5094142;28;19919;-65
2022/01/28 01:24:34;;;;;;;;;;;12.70;97.50;;;;;;5094971;28;20339;-65
2022/01/28 01:27:00;;;;;;;;;;;12.70;97.50;;;;;;5114109;28;20412;-65
2022/01/28 01:29:26;;;;;;;;;;;12.70;97.40;;;;;;5113695;28;19924;-65
2022/01/28 01:32:00;;;;;;;;;;;12.80;97.40;;;;;;5113311;28;19935;-66
2022/01/28 01:34:26;;;;;;;;;;;12.70;97.40;;;;;;5112723;28;20469;-65
2022/01/28 01:36:51;;;;;;;;;;;12.70;97.40;;;;;;5112873;28;19982;-65
2022/01/28 01:39:23;;;;;;;;;;;12.60;97.30;;;;;;5114056;28;19931;-66
2022/01/28 01:41:56;;;;;;;;;;;12.80;97.50;;;;;;5114034;28;19931;-65
2022/01/28 01:52:35;;;;;;;;;;;12.80;97.30;;;;;;5113195;28;19919;-65
2022/01/28 01:55:00;;;;;;;;;;;12.90;97.40;;;;;;5114632;28;19931;-65
2022/01/28 01:57:26;;;;;;;;;;;12.90;97.30;;;;;;5101353;28;19920;-66
2022/01/28 01:59:51;;;;;;;;;;;12.70;97.30;;;;;;5103927;28;19953;-65
2022/01/28 02:02:17;;;;;;;;;;;13.00;97.40;;;;;;5114418;28;19990;-65
2022/01/28 02:04:43;;;;;;;;;;;12.60;97.30;;;;;;5117764;28;20395;-65
2022/01/28 02:07:08;;;;;;;;;;;12.80;97.40;;;;;;5116709;28;19931;-65
2022/01/28 02:09:34;;;;;;;;;;;12.80;97.30;;;;;;5116667;28;19924;-64
2022/01/28 02:12:00;;;;;;;;;;;12.80;97.30;;;;;;5117859;28;19949;-66
2022/01/28 02:14:25;;;;;;;;;;;13.00;97.40;;;;;;5116374;28;20323;-64
2022/01/28 02:16:51;;;;;;;;;;;12.60;97.20;;;;;;5116117;28;20015;-65
2022/01/28 02:19:16;;;;;;;;;;;12.80;97.40;;;;;;5117747;28;19931;-65
2022/01/28 02:21:51;;;;;;;;;;;13.00;97.30;;;;;;5116673;28;20436;-64
2022/01/28 02:24:21;;;;;;;;;;;12.80;97.30;;;;;;5117275;28;19923;-66
2022/01/28 02:26:47;;;;;;;;;;;;;;;;;;5113658;28;19924;-65
2022/01/28 02:29:17;;;;;;;;;;;12.90;97.20;;;;;;5102939;28;20391;-65
2022/01/28 02:31:43;;;;;;;;;;;12.90;97.20;;;;;;5116399;27;20285;-65
2022/01/28 02:34:11;;;;;;;;;;;12.90;97.20;;;;;;5117178;28;19924;-66
2022/01/28 02:36:37;;;;;;;;;;;13.00;97.30;;;;;;5116099;27;19931;-65
2022/01/28 02:39:04;;;;;;;;;;;12.80;97.20;;;;;;5115872;28;19920;-64
2022/01/28 02:41:35;;;;;;;;;;;;;;;;;;5117001;28;19963;-65
2022/01/28 02:44:16;;;;;;;;;;;12.60;97.10;;;;;;5115652;28;20073;-65
2022/01/28 02:46:54;;;;;;;;;;;12.80;97.10;;;;;;5117235;28;20342;-65
2022/01/28 02:49:20;;;;;;;;;;;12.80;97.10;;;;;;5106494;28;19927;-65
2022/01/28 02:51:45;;;;;;;;;;;12.70;97.10;;;;;;5103300;28;19923;-65
2022/01/28 02:54:14;;;;;;;;;;;;;;;;;;5114921;28;19924;-66
2022/01/28 02:56:49;;;;;;;;;;;12.70;97.10;;;;;;5116935;28;20048;-65
2022/01/28 02:59:15;;;;;;;;;;;12.90;97.00;;;;;;5114458;28;19920;-65
2022/01/28 03:01:40;;;;;;;;;;;13.00;97.10;;;;;;5100626;28;19931;-65
2022/01/28 03:04:08;;;;;;;;;;;12.70;97.00;;;;;;5096378;28;20263;-64
2022/01/28 03:06:33;;;;;;;;;;;13.00;97.10;;;;;;5103205;28;19924;-64
2022/01/28 03:09:06;;;;;;;;;;;12.70;97.00;;;;;;5115806;28;19931;-64
2022/01/28 03:14:20;;;;;;;;;;;;;;;;;;5115691;28;19924;-66
2022/01/28 03:17:01;;;;;;;;;;;12.90;97.10;;;;;;5106004;28;20393;-66
2022/01/28 03:19:39;;;;;;;;;;;12.90;96.90;;;;;;5115615;28;20288;-65
2022/01/28 03:22:05;;;;;;;;;;;12.90;97.00;;;;;;5113037;28;19931;-65
2022/01/28 03:24:31;;;;;;;;;;;12.70;96.90;;;;;;5116038;28;19924;-65
2022/01/28 03:27:03;;;;;;;;;;;12.80;96.90;;;;;;5115549;28;20019;-65
2022/01/28 03:29:28;;;;;;;;;;;12.80;96.80;;;;;;5105752;28;19924;-65
2022/01/28 03:31:54;;;;;;;;;;;12.80;96.90;;;;;;5103702;28;19931;-66
2022/01/28 03:34:20;;;;;;;;;;;12.60;96.80;;;;;;5110646;28;19978;-64
2022/01/28 03:36:45;;;;;;;;;;;12.80;96.90;;;;;;5114788;28;20277;-65
2022/01/28 03:39:11;;;;;;;;;;;12.80;96.90;;;;;;5116141;28;19931;-65
2022/01/28 03:41:37;;;;;;;;;;;13.00;96.90;;;;;;5109935;28;19977;-65
2022/01/28 03:44:03;;;;;;;;;;;13.00;96.90;;;;;;5095475;28;20304;-65
2022/01/28 03:46:29;;;;;;;;;;;12.80;96.80;;;;;;5099754;28;19924;-65
2022/01/28 03:48:55;;;;;;;;;;;12.90;96.80;;;;;;5115139;28;19974;-65
2022/01/28 03:51:20;;;;;;;;;;;12.80;96.80;;;;;;5115669;28;19924;-66
2022/01/28 03:53:46;;;;;;;;;;;12.90;96.80;;;;;;5114870;28;20432;-65
2022/01/28 03:56:12;;;;;;;;;;;12.90;96.80;;;;;;5114832;28;19967;-65
2022/01/28 03:58:37;;;;;;;;;;;12.90;96.80;;;;;;5114831;28;19931;-65
2022/01/28 04:01:08;;;;;;;;;;;12.80;96.90;;;;;;5115367;28;19931;-65
2022/01/28 04:13:55;;;;;;;;;;;12.80;96.70;;;;;;5113181;28;19966;-65
2022/01/28 04:18:57;;;;;;;;;;;13.00;96.80;;;;;;5114694;28;19920;-64
2022/01/28 04:21:23;;;;;;;;;;;12.80;96.60;;;;;;5115372;28;19928;-66
2022/01/28 04:23:48;;;;;;;;;;;12.70;96.60;;;;;;5114129;28;19946;-65
2022/01/28 04:26:14;;;;;;;;;;;12.90;96.70;;;;;;5113507;28;19931;-65
2022/01/28 04:28:39;;;;;;;;;;;12.70;96.60;;;;;;5114198;28;19998;-65
2022/01/28 04:31:06;;;;;;;;;;;12.70;96.60;;;;;;5115187;28;19947;-64
2022/01/28 04:33:31;;;;;;;;;;;12.80;96.70;;;;;;5113972;28;19980;-64
2022/01/28 04:35:57;;;;;;;;;;;12.90;96.60;;;;;;5099068;28;19928;-65
2022/01/28 04:38:40;;;;;;;;;;;12.70;96.60;;;;;;5094968;28;19973;-65
2022/01/28 04:43:44;;;;;;;;;;;13.30;96.70;;;;;;5113544;28;19983;-65
2022/01/28 04:46:39;;;;;;;;;;;12.80;96.60;;;;;;5108814;28;19986;-63
2022/01/28 05:07:58;;;;;;;;;;;12.90;96.50;;;;;;4992694;28;19926;-65
2022/01/28 05:13:57;;;;;;;;;;;12.90;96.50;;;;;;5025655;28;19979;-66
2022/01/28 05:27:07;;;;;;;;;;;12.90;96.50;;;;;;4953540;29;20352;-65
2022/01/28 05:29:32;;;;;;;;;;;12.80;96.50;;;;;;4941400;29;20005;-65
2022/01/28 05:31:58;;;;;;;;;;;12.90;96.50;;;;;;4934302;29;20010;-65
2022/01/28 05:34:27;;;;;;;;;;;12.80;96.50;;;;;;4955204;28;20403;-65
2022/01/28 05:36:53;;;;;;;;;;;12.80;96.40;;;;;;5011964;28;20336;-65
2022/01/28 05:39:19;;;;;;;;;;;13.00;96.50;;;;;;5013923;28;20415;-65
2022/01/28 05:41:45;;;;;;;;;;;13.00;96.50;;;;;;5024401;28;20272;-65
2022/01/28 05:44:11;;;;;;;;;;;12.80;96.50;;;;;;5033654;28;19987;-65
2022/01/28 05:46:36;;;;;;;;;;;12.80;96.40;;;;;;5035429;28;19931;-65
2022/01/28 05:49:02;;;;;;;;;;;;;;;;;;5032516;28;20131;-65
2022/01/28 05:51:28;;;;;;;;;;;13.00;96.50;;;;;;5035340;28;19926;-65
2022/01/28 05:53:57;;;;;;;;;;;12.90;96.40;;;;;;5034340;28;19921;-65
2022/01/28 05:56:24;;;;;;;;;;;12.90;96.50;;;;;;5081065;28;20301;-64
2022/01/28 05:58:50;;;;;;;;;;;12.90;96.40;;;;;;5103179;28;20384;-65
2022/01/28 06:01:15;;;;;;;;;;;12.80;96.20;;;;;;5117776;28;19926;-66
2022/01/28 06:03:42;;;;;;;;;;;12.90;96.30;;;;;;5116951;28;19927;-65
2022/01/28 06:06:12;;;;;;;;;;;13.00;96.30;;;;;;5116379;28;20399;-65
2022/01/28 06:08:38;;;;;;;;;;;12.80;96.10;;;;;;5117964;28;20310;-65
2022/01/28 06:11:03;;;;;;;;;;;12.80;96.30;;;;;;5116517;28;19924;-65
2022/01/28 06:13:29;;;;;;;;;;;12.80;96.30;;;;;;5117394;28;19923;-65
2022/01/28 06:15:56;;;;;;;;;;;13.00;96.40;;;;;;5116634;28;19924;-65
2022/01/28 06:18:22;;;;;;;;;;;13.10;96.40;;;;;;5116597;28;19924;-65
2022/01/28 06:20:48;;;;;;;;;;;13.10;96.40;;;;;;5117671;28;19930;-65
2022/01/28 06:23:13;;;;;;;;;;;12.70;96.30;;;;;;5116262;28;19924;-64
2022/01/28 06:25:39;;;;;;;;;;;12.80;96.30;;;;;;5117558;28;19923;-65
2022/01/28 06:28:05;;;;;;;;;;;12.80;96.30;;;;;;5116489;28;19932;-64
2022/01/28 06:30:30;;;;;;;;;;;12.80;96.20;;;;;;5116399;28;19931;-65
2022/01/28 06:32:56;;;;;;;;;;;12.90;96.20;;;;;;5114811;28;20281;-65
2022/01/28 06:35:22;;;;;;;;;;;;;;;;;;5115085;28;19923;-64
2022/01/28 06:37:48;;;;;;;;;;;;;;;;;;5109932;28;19923;-65
2022/01/28 06:40:15;;;;;;;;;;;13.20;96.20;;;;;;5117043;28;19924;-64
2022/01/28 06:42:40;;;;;;;;;;;12.90;96.20;;;;;;5116141;28;19924;-64
2022/01/28 06:45:06;;;;;;;;;;;12.80;96.20;;;;;;5117142;28;19976;-64
2022/01/28 06:47:32;;;;;;;;;;;;;;;;;;5115446;28;20385;-64
2022/01/28 06:49:58;;;;;;;;;;;12.80;96.20;;;;;;5097202;28;19931;-65
2022/01/28 06:52:24;;;;;;;;;;;13.00;96.20;;;;;;5098284;28;19935;-63
2022/01/28 06:54:49;;;;;;;;;;;13.00;96.30;;;;;;5108613;28;19982;-64
2022/01/28 06:57:15;;;;;;;;;;;;;;;;;;5115596;28;19934;-60
2022/01/28 06:59:42;;;;;;;;;;;;;;;;;;5115733;28;19928;-60
2022/01/28 07:02:07;;;;;;;;;;;12.90;96.10;;;;;;5116425;28;20011;-66
2022/01/28 07:04:33;;;;;;;;;;;12.80;96.10;;;;;;5112764;28;20011;-67
2022/01/28 07:06:59;;;;;;;;;;;13.00;96.10;;;;;;5115548;28;20326;-66
2022/01/28 07:09:25;;;;;;;;;;;13.00;96.00;;;;;;5116344;28;19924;-66
2022/01/28 07:11:51;;;;;;;;;;;12.80;96.10;;;;;;5116717;28;19924;-67
2022/01/28 07:14:16;;;;;;;;;;;13.00;96.00;;;;;;5116201;28;19999;-61
2022/01/28 07:16:42;;;;;;;;;;;12.80;95.90;;;;;;5116147;28;19931;-60
2022/01/28 07:19:09;;;;;;;;;;;13.00;96.00;;;;;;5115812;28;19931;-59
2022/01/28 07:21:35;;;;;;;;;;;12.80;96.10;;;;;;5115968;28;19924;-60
2022/01/28 07:24:01;;;;;;;;;;;;;;;;;;5115983;28;19924;-64
2022/01/28 07:26:26;;;;;;;;;;;12.70;96.10;;;;;;5114488;28;19924;-61
2022/01/28 07:28:53;;;;;;;;;;;12.90;96.20;;;;;;5116262;28;19924;-61
2022/01/28 07:31:19;;;;;;;;;;;12.80;96.20;;;;;;5116216;28;19923;-61
2022/01/28 07:33:45;;;;;;;;;;;12.90;96.20;;;;;;5116072;28;20010;-63
2022/01/28 07:36:10;;;;;;;;;;;12.90;96.20;;;;;;5110259;28;19946;-61
2022/01/28 07:38:36;;;;;;;;;;;13.10;96.30;;;;;;5115168;28;19919;-66
2022/01/28 07:41:02;;;;;;;;;;;12.90;96.20;;;;;;5115493;28;19931;-67
2022/01/28 07:43:27;;;;;;;;;;;12.90;96.20;;;;;;5102039;28;19924;-66
2022/01/28 07:45:53;;;;;;;;;;;12.90;96.20;;;;;;5097825;28;19924;-60
2022/01/28 07:48:19;;;;;;;;;;;;;;;;;;5108843;28;19924;-60
2022/01/28 07:50:45;;;;;;;;;;;13.00;96.20;;;;;;5114303;28;20318;-60
2022/01/28 07:53:15;;;;;;;;;;;13.10;96.10;;;;;;5114773;28;19976;-60
2022/01/28 07:55:41;;;;;;;;;;;12.90;96.00;;;;;;5115129;28;19924;-60
2022/01/28 07:58:06;;;;;;;;;;;12.80;95.90;;;;;;5115250;28;19930;-61
2022/01/28 08:00:32;;;;;;;;;;;12.80;95.90;;;;;;5114533;28;19927;-60
2022/01/28 08:02:58;;;;;;;;;;;;;;;;;;5113820;28;19932;-60
2022/01/28 08:05:23;;;;;;;;;;;12.90;95.80;;;;;;5115517;28;20296;-61
2022/01/28 08:07:49;;;;;;;;;;;13.20;95.90;;;;;;5115324;28;19930;-61
2022/01/28 08:10:16;;;;;;;;;;;;;;;;;;5115145;28;19934;-60
2022/01/28 08:12:52;;;;;;;;;;;13.10;96.00;;;;;;5115098;28;19970;-63
2022/01/28 08:15:18;;;;;;;;;;;12.90;95.90;;;;;;5114779;28;19931;-64
2022/01/28 08:17:43;;;;;;;;;;;12.80;95.80;;;;;;5115116;28;19924;-65
2022/01/28 08:20:09;;;;;;;;;;;13.30;95.90;;;;;;5113629;28;19924;-66
2022/01/28 08:22:45;;;;;;;;;;;12.90;95.80;;;;;;5115131;28;19924;-65
2022/01/28 08:25:10;;;;;;;;;;;13.10;95.90;;;;;;5105098;28;19924;-64
2022/01/28 08:27:36;;;;;;;;;;;12.90;95.90;;;;;;5094432;28;19978;-59
2022/01/28 08:30:02;;;;;;;;;;;13.00;95.80;;;;;;5093614;28;19974;-65
2022/01/28 08:32:28;;;;;;;;;;;;;;;;;;5110510;28;19931;-61
2022/01/28 08:34:54;;;;;;;;;;;;;;;;;;5114423;28;19931;-66
2022/01/28 08:37:20;;;;;;;;;;;12.90;95.80;;;;;;5111037;27;19977;-62
2022/01/28 08:39:45;;;;;;;;;;;13.20;95.90;;;;;;5114371;28;19919;-66
2022/01/28 08:42:13;;;;;;;;;;;13.10;95.80;;;;;;5114848;28;20445;-65
2022/01/28 08:44:38;;;;;;;;;;;13.10;95.90;;;;;;5110330;28;19924;-60
2022/01/28 08:47:04;;;;;;;;;;;13.10;95.80;;;;;;5112320;28;19923;-59
2022/01/28 08:49:30;;;;;;;;;;;13.20;95.80;;;;;;5114136;28;19985;-61
2022/01/28 08:51:55;;;;;;;;;;;13.30;95.80;;;;;;5114337;28;19924;-66
2022/01/28 08:54:21;;;;;;;;;;;13.20;95.70;;;;;;5114549;28;20377;-61
2022/01/28 08:56:46;;;;;;;;;;;13.30;95.70;;;;;;5113382;28;19924;-66
2022/01/28 08:59:12;;;;;;;;;;;13.00;95.70;;;;;;5113897;28;20010;-64
2022/01/28 09:01:38;;;;;;;;;;;12.80;95.60;;;;;;5113494;28;19923;-65
2022/01/28 09:04:03;;;;;;;;;;;13.10;95.70;;;;;;5114236;28;20444;-60
2022/01/28 09:06:29;;;;;;;;;;;13.30;95.70;;;;;;5113965;28;20002;-59
2022/01/28 09:08:59;;;;;;;;;;;;;;;;;;5114318;28;20060;-66
2022/01/28 09:13:52;;;;;;;;;;;13.10;95.70;;;;;;5114315;28;20481;-59
2022/01/28 09:16:18;;;;;;;;;;;13.30;95.60;;;;;;5114040;28;19951;-61
2022/01/28 09:18:44;;;;;;;;;;;13.40;95.70;;;;;;5114513;28;19931;-59
2022/01/28 09:21:09;;;;;;;;;;;13.40;95.60;;;;;;5113934;28;19924;-59
2022/01/28 09:23:35;;;;;;;;;;;13.40;95.60;;;;;;5113672;28;19923;-59
2022/01/28 09:26:01;;;;;;;;;;;13.40;95.50;;;;;;5110246;28;19935;-66
2022/01/28 09:28:27;;;;;;;;;;;13.50;95.50;;;;;;5107947;28;19920;-66
2022/01/28 09:30:52;;;;;;;;;;;13.50;95.50;;;;;;5114278;28;19969;-67
2022/01/28 09:33:18;;;;;;;;;;;13.50;95.50;;;;;;5112787;28;19924;-66
2022/01/28 09:35:44;;;;;;;;;;;13.40;95.50;;;;;;5112980;28;19924;-66
2022/01/28 09:38:10;;;;;;;;;;;;;;;;;;5109377;28;19930;-66
2022/01/28 09:40:36;;;;;;;;;;;13.40;95.50;;;;;;5113465;28;19924;-66
2022/01/28 09:43:04;;;;;;;;;;;13.40;95.50;;;;;;5113562;28;20444;-66
2022/01/28 09:45:30;;;;;;;;;;;13.60;95.50;;;;;;5112865;28;19924;-67
2022/01/28 09:47:56;;;;;;;;;;;13.50;95.50;;;;;;5113722;28;20327;-59
2022/01/28 09:50:22;;;;;;;;;;;13.60;95.50;;;;;;5112774;28;20286;-60
2022/01/28 09:52:49;;;;;;;;;;;;;;;;;;5114124;28;19928;-63
2022/01/28 09:55:15;;;;;;;;;;;13.70;95.50;;;;;;5113508;28;19934;-65
2022/01/28 09:57:40;;;;;;;;;;;13.40;95.50;;;;;;5113616;28;20331;-65
2022/01/28 10:00:06;;;;;;;;;;;13.70;95.50;;;;;;5112635;28;19930;-67
2022/01/28 10:02:48;;;;;;;;;;;13.60;95.50;;;;;;5114187;28;19969;-66
2022/01/28 10:05:26;;;;;;;;;;;13.40;95.50;;;;;;5113259;28;19924;-66
2022/01/28 10:07:52;;;;;;;;;;;;;;;;;;5108065;28;19934;-65
2022/01/28 10:10:18;;;;;;;;;;;;;;;;;;5113529;28;19928;-65
2022/01/28 10:12:50;;;;;;;;;;;13.80;95.50;;;;;;5113236;28;19949;-65
2022/01/28 10:15:18;;;;;;;;;;;13.60;95.40;;;;;;5113580;28;19924;-66
2022/01/28 10:17:51;;;;;;;;;;;13.60;95.40;;;;;;5112955;28;20287;-63
2022/01/28 10:20:17;;;;;;;;;;;;;;;;;;5093622;28;19924;-65
2022/01/28 10:22:50;;;;;;;;;;;13.30;95.10;;;;;;5111554;28;20015;-65
2022/01/28 10:25:26;;;;;;;;;;;13.70;95.50;;;;;;5116685;28;19924;-66
2022/01/28 10:27:52;;;;;;;;;;;;;;;;;;5117157;28;19980;-66
2022/01/28 10:30:18;;;;;;;;;;;13.60;95.40;;;;;;5115758;28;19924;-64
2022/01/28 10:32:44;;;;;;;;;;;13.50;95.40;;;;;;5116718;28;19931;-67
2022/01/28 10:35:09;;;;;;;;;;;13.70;95.40;;;;;;5115815;28;19924;-67
2022/01/28 10:37:36;;;;;;;;;;;14.00;95.40;;;;;;5116037;28;19930;-66
2022/01/28 10:40:09;;;;;;;;;;;13.70;95.30;;;;;;5115867;28;19934;-67
2022/01/28 10:42:36;;;;;;;;;;;13.80;95.40;;;;;;5115736;28;19923;-66
2022/01/28 10:45:02;;;;;;;;;;;;;;;;;;5117101;28;20028;-67
2022/01/28 10:47:37;;;;;;;;;;;13.60;95.40;;;;;;5116884;28;19924;-66
2022/01/28 10:50:15;;;;;;;;;;;14.00;95.50;;;;;;5114600;28;19924;-65
2022/01/28 10:52:41;;;;;;;;;;;;;;;;;;5116782;28;20300;-68
2022/01/28 10:55:07;;;;;;;;;;;13.90;95.40;;;;;;5116134;28;19924;-70
2022/01/28 10:57:33;;;;;;;;;;;14.10;95.40;;;;;;5116586;28;19927;-70
2022/01/28 10:59:58;;;;;;;;;;;14.10;95.30;;;;;;5115997;28;20019;-70
2022/01/28 11:02:25;;;;;;;;;;;14.20;95.30;;;;;;5116744;28;19924;-70
2022/01/28 11:04:52;;;;;;;;;;;;;;;;;;5116482;28;19924;-70
2022/01/28 11:07:18;;;;;;;;;;;14.10;95.10;;;;;;5116791;28;20003;-60
2022/01/28 11:09:43;;;;;;;;;;;14.10;95.10;;;;;;5116166;28;20408;-61
2022/01/28 11:12:09;;;;;;;;;;;14.30;95.10;;;;;;5114685;28;20266;-64
2022/01/28 11:14:35;;;;;;;;;;;14.10;95.00;;;;;;5114301;28;20434;-63
2022/01/28 11:17:00;;;;;;;;;;;14.30;95.00;;;;;;5114964;28;20292;-61
2022/01/28 11:19:27;;;;;;;;;;;14.20;95.00;;;;;;5116165;28;20393;-60
2022/01/28 11:21:56;;;;;;;;;;;14.40;95.00;;;;;;5116099;28;20011;-60
2022/01/28 11:24:27;;;;;;;;;;;14.70;95.10;;;;;;5116362;28;19931;-60
2022/01/28 11:27:26;;;;;;;;;;;14.40;95.00;;;;;;5116399;28;19950;-60
2022/01/28 11:30:11;;;;;;;;;;;14.60;95.00;;;;;;5073427;28;19928;-62
2022/01/28 11:32:51;;;;;;;;;;;14.50;94.90;;;;;;5071640;28;19942;-63
2022/01/28 11:35:19;;;;;;;;;;;14.50;94.80;;;;;;5068047;28;20296;-63
2022/01/28 11:37:44;;;;;;;;;;;14.40;94.80;;;;;;5067097;28;19952;-68
2022/01/28 11:40:11;;;;;;;;;;;;;;;;;;5072953;28;20629;-65
2022/01/28 11:42:36;;;;;;;;;;;14.50;94.70;;;;;;5063720;28;19924;-59
2022/01/28 11:45:06;;;;;;;;;;;14.80;94.80;;;;;;5071968;28;19924;-59
2022/01/28 11:47:41;;;;;;;;;;;14.60;94.70;;;;;;5072924;28;19993;-61
2022/01/28 11:50:13;;;;;;;;;;;14.40;94.50;;;;;;5071051;28;19932;-61
2022/01/28 11:52:40;;;;;;;;;;;14.70;94.70;;;;;;5072364;28;20313;-61
2022/01/28 11:55:17;;;;;;;;;;;14.80;94.70;;;;;;5072543;28;19924;-61
2022/01/28 11:58:10;;;;;;;;;;;14.80;94.60;;;;;;5071967;28;19931;-59
2022/01/28 12:00:49;;;;;;;;;;;14.60;94.60;;;;;;5070856;28;20298;-63
2022/01/28 12:03:17;;;;;;;;;;;14.90;94.60;;;;;;5072216;28;19925;-60
2022/01/28 12:05:42;;;;;;;;;;;14.90;94.60;;;;;;5099155;28;20430;-66
2022/01/28 12:08:08;;;;;;;;;;;14.60;94.40;;;;;;5115297;28;19927;-61
2022/01/28 12:10:39;;;;;;;;;;;14.80;94.40;;;;;;5115265;28;20388;-66
2022/01/28 12:13:06;;;;;;;;;;;14.90;94.40;;;;;;5115099;28;19955;-61
2022/01/28 12:15:57;;;;;;;;;;;15.00;94.40;;;;;;5114355;28;19923;-61
2022/01/28 12:18:23;;;;;;;;;;;14.90;94.40;;;;;;5114743;28;19959;-59
2022/01/28 12:20:48;;;;;;;;;;;14.80;94.30;;;;;;5113809;28;19971;-62
2022/01/28 12:23:14;;;;;;;;;;;15.00;94.30;;;;;;5114005;28;19928;-59
2022/01/28 12:25:43;;;;;;;;;;;14.90;94.20;;;;;;5115001;28;20412;-61
2022/01/28 12:28:14;;;;;;;;;;;15.00;94.30;;;;;;5114850;28;19923;-60
2022/01/28 12:31:03;;;;;;;;;;;15.10;94.30;;;;;;5115167;28;19992;-61
2022/01/28 12:33:30;;;;;;;;;;;14.90;94.20;;;;;;5031503;28;19926;-68
2022/01/28 12:35:57;;;;;;;;;;;15.00;94.30;;;;;;5031526;28;19972;-66
2022/01/28 12:38:25;;;;;;;;;;;14.70;94.30;;;;;;5031732;28;19925;-63
2022/01/28 12:40:53;;;;;;;;;;;14.90;94.30;;;;;;5012366;28;19929;-65
2022/01/28 12:43:20;;;;;;;;;;;14.90;94.40;;;;;;5028029;28;19959;-64
2022/01/28 12:45:47;;;;;;;;;;;14.80;94.10;;;;;;5014913;28;20326;-65
2022/01/28 12:48:13;;;;;;;;;;;15.00;94.50;;;;;;5013817;28;20415;-61
2022/01/28 12:50:38;;;;;;;;;;;15.10;94.60;;;;;;5030180;28;19961;-61
2022/01/28 12:53:04;;;;;;;;;;;15.00;94.50;;;;;;5031192;28;19925;-63
2022/01/28 12:55:35;;;;;;;;;;;15.10;94.50;;;;;;5031237;28;19925;-64
2022/01/28 12:58:01;;;;;;;;;;;15.10;94.50;;;;;;5031463;28;19929;-60
2022/01/28 13:00:27;;;;;;;;;;;14.80;94.40;;;;;;5030594;28;20407;-63
2022/01/28 13:02:53;;;;;;;;;;;14.90;94.50;;;;;;5031060;28;20471;-60
2022/01/28 13:05:33;;;;;;;;;;;14.70;94.50;;;;;;5031851;28;20434;-60
2022/01/28 13:10:43;;;;;;;;;;;15.10;94.50;;;;;;5078400;28;19928;-65
2022/01/28 13:13:09;;;;;;;;;;;15.10;94.60;;;;;;5113165;28;19924;-61
2022/01/28 13:15:35;;;;;;;;;;;14.90;94.50;;;;;;5110842;28;19924;-65
2022/01/28 13:18:02;;;;;;;;;;;15.00;94.30;;;;;;5107704;28;20493;-65
2022/01/28 13:20:32;;;;;;;;;;;14.60;94.40;;;;;;5113818;28;19938;-60
2022/01/28 13:22:57;;;;;;;;;;;14.80;94.50;;;;;;5113504;28;20010;-59
2022/01/28 13:25:24;;;;;;;;;;;14.80;94.60;;;;;;5113952;28;20519;-60
2022/01/28 13:27:54;;;;;;;;;;;14.70;94.50;;;;;;5104180;28;20316;-61
2022/01/28 13:30:20;;;;;;;;;;;15.00;94.60;;;;;;5113213;28;20377;-61
2022/01/28 13:32:47;;;;;;;;;;;14.80;94.60;;;;;;5112705;28;19924;-59
2022/01/28 13:35:13;;;;;;;;;;;14.80;94.60;;;;;;5113493;28;19971;-60
2022/01/28 13:37:40;;;;;;;;;;;14.80;94.60;;;;;;5113694;28;19924;-60
2022/01/28 13:40:06;;;;;;;;;;;;;;;;;;5114354;28;20006;-61
2022/01/28 13:42:32;;;;;;;;;;;14.70;94.50;;;;;;5114183;28;20276;-61
2022/01/28 13:45:03;;;;;;;;;;;15.00;94.50;;;;;;5112954;28;19931;-61
2022/01/28 13:47:51;;;;;;;;;;;14.40;94.50;;;;;;5107986;28;19947;-61
2022/01/28 13:50:26;;;;;;;;;;;14.70;94.60;;;;;;5112976;28;19923;-61
2022/01/28 13:52:53;;;;;;;;;;;;;;;;;;5113266;28;20006;-66
2022/01/28 13:55:32;;;;;;;;;;;14.90;94.60;;;;;;5113380;28;20010;-66
2022/01/28 13:58:04;;;;;;;;;;;14.60;94.50;;;;;;5113802;28;19971;-66
2022/01/28 14:00:41;;;;;;;;;;;14.60;94.50;;;;;;5097554;28;19924;-62
2022/01/28 14:03:23;;;;;;;;;;;14.70;94.60;;;;;;5110759;28;19923;-62
2022/01/28 14:05:49;;;;;;;;;;;14.70;94.60;;;;;;5118641;28;19924;-62
2022/01/28 14:08:15;;;;;;;;;;;14.50;94.60;;;;;;5118043;28;19924;-62
2022/01/28 14:10:40;;;;;;;;;;;14.90;94.70;;;;;;5116629;28;19928;-65
2022/01/28 14:13:19;;;;;;;;;;;14.40;94.50;;;;;;5112289;28;20003;-66
2022/01/28 14:15:53;;;;;;;;;;;14.60;94.40;;;;;;5117923;28;20075;-65
2022/01/28 14:18:19;;;;;;;;;;;14.70;94.50;;;;;;5117515;28;19924;-61
2022/01/28 14:20:44;;;;;;;;;;;14.50;94.50;;;;;;5117267;28;19924;-62
2022/01/28 14:23:10;;;;;;;;;;;14.50;94.50;;;;;;5112925;28;19928;-65
2022/01/28 14:25:36;;;;;;;;;;;14.50;94.60;;;;;;5108571;28;19924;-65
2022/01/28 14:30:41;;;;;;;;;;;14.40;94.60;;;;;;5115005;28;20312;-65
2022/01/28 14:33:07;;;;;;;;;;;14.30;94.60;;;;;;5112923;28;20010;-64
2022/01/28 14:35:33;;;;;;;;;;;;;;;;;;5116304;28;19975;-65
2022/01/28 14:37:59;;;;;;;;;;;14.40;94.60;;;;;;5116665;28;20356;-65
2022/01/28 14:40:24;;;;;;;;;;;14.30;94.60;;;;;;5103929;28;19967;-65
2022/01/28 14:42:50;;;;;;;;;;;14.20;94.60;;;;;;5116462;28;19928;-65
2022/01/28 14:45:16;;;;;;;;;;;14.40;94.70;;;;;;5116843;28;19931;-65
2022/01/28 14:47:42;;;;;;;;;;;14.40;94.70;;;;;;5116908;28;19924;-59
2022/01/28 14:50:08;;;;;;;;;;;14.30;94.60;;;;;;5110850;28;19947;-61
2022/01/28 14:52:34;;;;;;;;;;;;;;;;;;5104891;28;19932;-60
2022/01/28 14:55:00;;;;;;;;;;;14.10;94.60;;;;;;5115731;28;19931;-61
2022/01/28 14:57:27;;;;;;;;;;;14.30;94.70;;;;;;5113063;28;19923;-65
2022/01/28 14:59:53;;;;;;;;;;;14.40;94.70;;;;;;5113847;28;19924;-61
2022/01/28 15:02:24;;;;;;;;;;;14.30;94.70;;;;;;5114415;28;19931;-60
2022/01/28 15:04:53;;;;;;;;;;;14.10;94.60;;;;;;5100729;28;19967;-61
2022/01/28 15:07:19;;;;;;;;;;;14.10;94.70;;;;;;5116413;28;19969;-63
2022/01/28 15:09:47;;;;;;;;;;;14.20;94.70;;;;;;5115334;28;19923;-62
2022/01/28 15:12:13;;;;;;;;;;;14.40;94.80;;;;;;5115871;28;19930;-63
2022/01/28 15:14:39;;;;;;;;;;;;;;;;;;5115339;28;19934;-65
2022/01/28 15:17:05;;;;;;;;;;;13.80;94.70;;;;;;5116459;28;20308;-65
2022/01/28 15:19:31;;;;;;;;;;;14.20;94.80;;;;;;5115079;28;20018;-64
2022/01/28 15:21:56;;;;;;;;;;;14.10;94.80;;;;;;5116327;28;20003;-65
2022/01/28 15:24:23;;;;;;;;;;;14.00;94.70;;;;;;5115531;28;19931;-65
2022/01/28 15:26:49;;;;;;;;;;;14.10;94.80;;;;;;5115588;28;19931;-65
2022/01/28 15:37:14;;;;;;;;;;;13.80;94.80;;;;;;5115501;28;19927;-65
2022/01/28 15:39:40;;;;;;;;;;;13.70;94.70;;;;;;5115155;28;20018;-65
2022/01/28 15:42:08;;;;;;;;;;;13.90;94.80;;;;;;5107273;28;20068;-59
2022/01/28 15:44:33;;;;;;;;;;;14.00;94.80;;;;;;5109394;28;19924;-60
2022/01/28 15:47:00;;;;;;;;;;;13.80;94.80;;;;;;5116124;28;19924;-64
2022/01/28 15:49:26;;;;;;;;;;;;;;;;;;5114740;28;19920;-59
2022/01/28 15:51:51;;;;;;;;;;;13.90;94.80;;;;;;5113970;28;19930;-64
2022/01/28 15:54:17;;;;;;;;;;;13.90;94.80;;;;;;5113928;28;20370;-65
2022/01/28 15:56:43;;;;;;;;;;;13.80;94.80;;;;;;5114862;28;19924;-65
2022/01/28 15:59:09;;;;;;;;;;;13.90;94.80;;;;;;5114507;28;19974;-65
2022/01/28 16:01:35;;;;;;;;;;;13.80;94.80;;;;;;5114702;28;19981;-65
2022/01/28 16:04:00;;;;;;;;;;;13.80;94.50;;;;;;5112699;28;19927;-65
2022/01/28 16:06:26;;;;;;;;;;;14.00;94.90;;;;;;5113268;28;19928;-64
2022/01/28 16:08:52;;;;;;;;;;;13.80;94.70;;;;;;5114576;28;19930;-64
2022/01/28 16:11:20;;;;;;;;;;;13.80;94.60;;;;;;5114785;28;19923;-65